Time;durP1;ratioP1;P1;durP2;ratioP2;P2;SDS_P1;SDS_P2;PMS_P1;PMS_P2;Temp;Humidity;BMP_temperature;BMP_pressure;BME280_temperature;BME280_humidity;BME280_pressure;Samples;Min_cycle;Max_cycle;Signal;HPM_P1;HPM_P2
2021/10/22 00:00:01;;;;;;;;;;;;;;;;;;5071750;28;19929;-79
2021/10/22 00:02:28;;;;;;;;;;;;;;;;;;5071556;28;19924;-79
2021/10/22 00:04:56;;;;;;;;;;;;;;;;;;5071738;28;19954;-78
2021/10/22 00:07:23;;;;;;;;;;;;;;;;;;5071092;28;19944;-78
2021/10/22 00:09:50;;;;;;;;;;;;;;;;;;5071311;28;20712;-77
2021/10/22 00:12:17;;;;;;;;;;;;;;;;;;5071522;28;19924;-77
2021/10/22 00:14:45;;;;;;;;;;;;;;;;;;5070755;28;19925;-77
2021/10/22 00:17:13;;;;;;;;;;;;;;;;;;5071308;28;20028;-77
2021/10/22 00:19:40;;;;;;;;;;;;;;;;;;5071517;28;20199;-77
2021/10/22 00:22:08;;;;;;;;;;;;;;;;;;5071244;28;20023;-78
2021/10/22 00:24:35;;;;;;;;;;;;;;;;;;5071212;28;19928;-77
2021/10/22 00:27:03;;;;;;;;;;;;;;;;;;5071426;28;20277;-78
2021/10/22 00:29:30;;;;;;;;;;;;;;;;;;5071193;28;20350;-77
2021/10/22 00:31:57;;;;;;;;;;;;;;;;;;5071286;28;19931;-78
2021/10/22 00:34:28;;;;;;;;;;;;;;;;;;5071885;28;19924;-77
2021/10/22 00:36:57;;;;;;;;;;;;;;;;;;5075062;28;20280;-77
2021/10/22 00:39:24;;;;;;;;;;;;;;;;;;5075048;28;19940;-78
2021/10/22 00:41:52;;;;;;;;;;;;;;;;;;5075195;28;19940;-78
2021/10/22 00:44:19;;;;;;;;;;;;;;;;;;5075266;28;19929;-79
2021/10/22 00:46:46;;;;;;;;;;;;;;;;;;5074717;28;19928;-79
2021/10/22 00:49:14;;;;;;;;;;;;;;;;;;5074890;28;19971;-79
2021/10/22 00:51:43;;;;;;;;;;;;;;;;;;5074685;28;20019;-79
2021/10/22 00:54:11;;;;;;;;;;;;;;;;;;5074879;28;20171;-79
2021/10/22 00:56:38;;;;;;;;;;;;;;;;;;5074960;28;19981;-79
2021/10/22 00:59:06;;;;;;;;;;;;;;;;;;5074425;28;19929;-78
2021/10/22 01:01:38;;;;;;;;;;;;;;;;;;5074836;28;19939;-79
2021/10/22 01:04:05;;;;;;;;;;;;;;;;;;5074601;28;20353;-78
2021/10/22 01:06:32;;;;;;;;;;;;;;;;;;5074380;28;19928;-78
2021/10/22 01:09:03;;;;;;;;;;;;;;;;;;5074587;28;20376;-79
2021/10/22 01:11:30;;;;;;;;;;;;;;;;;;5074448;28;19951;-79
2021/10/22 01:13:57;;;;;;;;;;;;;;;;;;5074067;28;20033;-78
2021/10/22 01:16:25;;;;;;;;;;;;;;;;;;5067476;28;19928;-79
2021/10/22 01:18:52;;;;;;;;;;;;;;;;;;5054101;28;19925;-78
2021/10/22 01:21:20;;;;;;;;;;;;;;;;;;5054532;28;19929;-79
2021/10/22 01:23:48;;;;;;;;;;;;;;;;;;5054182;28;19932;-79
2021/10/22 01:26:17;;;;;;;;;;;;;;;;;;5054296;28;20461;-78
2021/10/22 01:28:44;;;;;;;;;;;;;;;;;;5054276;28;19933;-79
2021/10/22 01:31:11;;;;;;;;;;;;;;;;;;5054260;28;19929;-78
2021/10/22 01:33:38;;;;;;;;;;;;;;;;;;5053889;28;19937;-77
2021/10/22 01:36:05;;;;;;;;;;;;;;;;;;5054041;28;19928;-78
2021/10/22 01:38:34;;;;;;;;;;;;;;;;;;5053755;28;19924;-77
2021/10/22 01:41:01;;;;;;;;;;;;;;;;;;5053978;28;19944;-77
2021/10/22 01:43:29;;;;;;;;;;;;;;;;;;5054272;28;19932;-78
2021/10/22 01:45:56;;;;;;;;;;;;;;;;;;5053227;28;19925;-78
2021/10/22 01:48:23;;;;;;;;;;;;;;;;;;5053327;28;19951;-78
2021/10/22 01:50:51;;;;;;;;;;;;;;;;;;5054054;28;19929;-78
2021/10/22 01:53:19;;;;;;;;;;;;;;;;;;5053386;28;19935;-78
2021/10/22 01:55:48;;;;;;;;;;;;;;;;;;5053437;28;19994;-78
2021/10/22 01:58:16;;;;;;;;;;;;;;;;;;5053978;28;19950;-79
2021/10/22 02:00:43;;;;;;;;;;;;;;;;;;5053595;28;19925;-78
2021/10/22 02:03:10;;;;;;;;;;;;;;;;;;5053815;28;19925;-79
2021/10/22 02:05:37;;;;;;;;;;;;;;;;;;5053185;28;20363;-79
2021/10/22 02:08:05;;;;;;;;;;;;;;;;;;5053423;28;19928;-79
2021/10/22 02:10:32;;;;;;;;;;;;;;;;;;5053263;28;19939;-78
2021/10/22 02:13:01;;;;;;;;;;;;;;;;;;5064255;28;19932;-78
2021/10/22 02:15:28;;;;;;;;;;;;;;;;;;5073738;28;19947;-78
2021/10/22 02:17:55;;;;;;;;;;;;;;;;;;5072832;28;20307;-78
2021/10/22 02:20:22;;;;;;;;;;;;;;;;;;5073161;28;19955;-78
2021/10/22 02:22:49;;;;;;;;;;;;;;;;;;5073073;28;19929;-79
2021/10/22 02:25:16;;;;;;;;;;;;;;;;;;5073296;28;19924;-78
2021/10/22 02:27:44;;;;;;;;;;;;;;;;;;5072831;28;19924;-78
2021/10/22 02:30:12;;;;;;;;;;;;;;;;;;5073006;28;19935;-78
2021/10/22 02:32:39;;;;;;;;;;;;;;;;;;5073101;28;19932;-79
2021/10/22 02:35:07;;;;;;;;;;;;;;;;;;5072877;28;19939;-77
2021/10/22 02:37:34;;;;;;;;;;;;;;;;;;5072686;28;19939;-77
2021/10/22 02:40:01;;;;;;;;;;;;;;;;;;5073123;28;20273;-79
2021/10/22 02:42:28;;;;;;;;;;;;;;;;;;5072853;28;19924;-79
2021/10/22 02:44:55;;;;;;;;;;;;;;;;;;5072592;28;20405;-79
2021/10/22 02:47:24;;;;;;;;;;;;;;;;;;5072133;28;19924;-77
2021/10/22 02:49:51;;;;;;;;;;;;;;;;;;5073011;28;19928;-78
2021/10/22 02:52:18;;;;;;;;;;;;;;;;;;5072942;28;19928;-78
2021/10/22 02:54:45;;;;;;;;;;;;;;;;;;5072510;28;19928;-77
2021/10/22 02:57:12;;;;;;;;;;;;;;;;;;5071616;28;19924;-78
2021/10/22 02:59:40;;;;;;;;;;;;;;;;;;5072231;28;19928;-78
2021/10/22 03:02:07;;;;;;;;;;;;;;;;;;5072471;28;19929;-77
2021/10/22 03:04:35;;;;;;;;;;;;;;;;;;5072272;28;19936;-79
2021/10/22 03:07:02;;;;;;;;;;;;;;;;;;5071961;28;19931;-79
2021/10/22 03:09:29;;;;;;;;;;;;;;;;;;5072248;28;19928;-80
2021/10/22 03:11:57;;;;;;;;;;;;;;;;;;5071417;28;19936;-79
2021/10/22 03:14:24;;;;;;;;;;;;;;;;;;5072040;28;19929;-80
2021/10/22 03:16:51;;;;;;;;;;;;;;;;;;5072322;28;19929;-79
2021/10/22 03:19:18;;;;;;;;;;;;;;;;;;5071827;28;19931;-80
2021/10/22 03:21:46;;;;;;;;;;;;;;;;;;5072093;28;19928;-79
2021/10/22 03:24:13;;;;;;;;;;;;;;;;;;5072018;28;19924;-79
2021/10/22 03:26:40;;;;;;;;;;;;;;;;;;5071790;28;19927;-79
2021/10/22 03:29:08;;;;;;;;;;;;;;;;;;5072157;28;19995;-80
2021/10/22 03:31:35;;;;;;;;;;;;;;;;;;5072008;28;19924;-80
2021/10/22 03:34:02;;;;;;;;;;;;;;;;;;5071810;28;19928;-79
2021/10/22 03:36:29;;;;;;;;;;;;;;;;;;5071214;28;19939;-80
2021/10/22 03:38:58;;;;;;;;;;;;;;;;;;5071420;28;19924;-79
2021/10/22 03:41:25;;;;;;;;;;;;;;;;;;5071911;28;19952;-77
2021/10/22 03:43:52;;;;;;;;;;;;;;;;;;5071657;28;19928;-77
2021/10/22 03:46:20;;;;;;;;;;;;;;;;;;5071352;28;20369;-77
2021/10/22 03:48:47;;;;;;;;;;;;;;;;;;5071696;28;19928;-77
2021/10/22 03:51:14;;;;;;;;;;;;;;;;;;5071713;28;19931;-77
2021/10/22 03:53:41;;;;;;;;;;;;;;;;;;5071164;28;19929;-77
2021/10/22 03:56:09;;;;;;;;;;;;;;;;;;5071735;28;19935;-78
2021/10/22 03:58:36;;;;;;;;;;;;;;;;;;5071777;28;19924;-78
2021/10/22 04:01:03;;;;;;;;;;;;;;;;;;5071251;28;19928;-77
2021/10/22 04:03:31;;;;;;;;;;;;;;;;;;5071637;28;19939;-77
2021/10/22 04:05:58;;;;;;;;;;;;;;;;;;5070867;28;19928;-77
2021/10/22 04:08:25;;;;;;;;;;;;;;;;;;5071373;28;19924;-77
2021/10/22 04:10:52;;;;;;;;;;;;;;;;;;5071633;28;19924;-77
2021/10/22 04:13:20;;;;;;;;;;;;;;;;;;5070398;28;19969;-78
2021/10/22 04:15:48;;;;;;;;;;;;;;;;;;5071574;28;20259;-79
2021/10/22 04:18:15;;;;;;;;;;;;;;;;;;5071086;28;19983;-78
2021/10/22 04:20:43;;;;;;;;;;;;;;;;;;5071318;28;19982;-78
2021/10/22 04:23:10;;;;;;;;;;;;;;;;;;5071773;28;19939;-78
2021/10/22 04:25:37;;;;;;;;;;;;;;;;;;5071052;28;19936;-78
2021/10/22 04:28:06;;;;;;;;;;;;;;;;;;5071311;28;19935;-77
2021/10/22 04:30:34;;;;;;;;;;;;;;;;;;5071193;28;19979;-78
2021/10/22 04:33:01;;;;;;;;;;;;;;;;;;5071137;28;19951;-78
2021/10/22 04:35:30;;;;;;;;;;;;;;;;;;5070987;28;19925;-80
2021/10/22 04:38:12;;;;;;;;;;;;;;;;;;5070388;28;19934;-79
2021/10/22 04:40:41;;;;;;;;;;;;;;;;;;5071071;28;19925;-79
2021/10/22 04:43:09;;;;;;;;;;;;;;;;;;5071052;28;19924;-80
2021/10/22 04:45:38;;;;;;;;;;;;;;;;;;5070910;28;19932;-79
2021/10/22 04:48:06;;;;;;;;;;;;;;;;;;5068612;28;19935;-79
2021/10/22 04:50:34;;;;;;;;;;;;;;;;;;5068811;28;19925;-79
2021/10/22 04:53:01;;;;;;;;;;;;;;;;;;5061138;28;19929;-80
2021/10/22 04:55:28;;;;;;;;;;;;;;;;;;5070560;28;20285;-79
2021/10/22 04:57:55;;;;;;;;;;;;;;;;;;5061760;28;19960;-79
2021/10/22 05:00:23;;;;;;;;;;;;;;;;;;5052553;28;19924;-80
2021/10/22 05:02:51;;;;;;;;;;;;;;;;;;5050839;28;19932;-80
2021/10/22 05:05:18;;;;;;;;;;;;;;;;;;5050913;28;20151;-80
2021/10/22 05:07:45;;;;;;;;;;;;;;;;;;5050319;28;19955;-79
2021/10/22 05:10:13;;;;;;;;;;;;;;;;;;5060009;28;19925;-79
2021/10/22 05:12:40;;;;;;;;;;;;;;;;;;5069858;28;19925;-79
2021/10/22 05:15:08;;;;;;;;;;;;;;;;;;5050457;28;19940;-79
2021/10/22 05:17:36;;;;;;;;;;;;;;;;;;5049663;28;19928;-80
2021/10/22 05:20:05;;;;;;;;;;;;;;;;;;5048831;28;20381;-79
2021/10/22 05:22:32;;;;;;;;;;;;;;;;;;5053807;28;19929;-79
2021/10/22 05:24:59;;;;;;;;;;;;;;;;;;5051618;28;19928;-79
2021/10/22 05:27:26;;;;;;;;;;;;;;;;;;5053534;28;19933;-80
2021/10/22 05:29:53;;;;;;;;;;;;;;;;;;5053479;28;20390;-79
2021/10/22 05:32:21;;;;;;;;;;;;;;;;;;5053882;28;19956;-79
2021/10/22 05:34:48;;;;;;;;;;;;;;;;;;5056855;28;19932;-79
2021/10/22 05:37:18;;;;;;;;;;;;;;;;;;5052935;28;19925;-79
2021/10/22 05:39:45;;;;;;;;;;;;;;;;;;5054001;28;19924;-79
2021/10/22 05:42:12;;;;;;;;;;;;;;;;;;5053787;28;19925;-79
2021/10/22 05:44:39;;;;;;;;;;;;;;;;;;5053098;28;19928;-79
2021/10/22 05:47:06;;;;;;;;;;;;;;;;;;5053324;28;20184;-79
2021/10/22 05:49:35;;;;;;;;;;;;;;;;;;5052778;28;20015;-79
2021/10/22 05:52:03;;;;;;;;;;;;;;;;;;5052816;28;19978;-80
2021/10/22 05:54:31;;;;;;;;;;;;;;;;;;5058049;28;19932;-79
2021/10/22 05:56:58;;;;;;;;;;;;;;;;;;5073389;28;19924;-79
2021/10/22 05:59:26;;;;;;;;;;;;;;;;;;5073050;28;20188;-78
2021/10/22 06:01:53;;;;;;;;;;;;;;;;;;5073102;28;19936;-80
2021/10/22 06:04:20;;;;;;;;;;;;;;;;;;5072925;28;19935;-79
2021/10/22 06:06:47;;;;;;;;;;;;;;;;;;5072705;28;19928;-79
2021/10/22 06:09:14;;;;;;;;;;;;;;;;;;5073014;28;19924;-79
2021/10/22 06:11:43;;;;;;;;;;;;;;;;;;5072843;28;19928;-80
2021/10/22 06:14:10;;;;;;;;;;;;;;;;;;5072211;28;19924;-79
2021/10/22 06:16:37;;;;;;;;;;;;;;;;;;5072733;28;20361;-78
2021/10/22 06:19:04;;;;;;;;;;;;;;;;;;5072414;28;19925;-78
2021/10/22 06:21:36;;;;;;;;;;;;;;;;;;5072522;28;19929;-78
2021/10/22 06:24:04;;;;;;;;;;;;;;;;;;5072646;28;19928;-77
2021/10/22 06:26:32;;;;;;;;;;;;;;;;;;5072541;28;19942;-78
2021/10/22 06:29:01;;;;;;;;;;;;;;;;;;5073015;28;20011;-79
2021/10/22 06:31:28;;;;;;;;;;;;;;;;;;5072610;28;19935;-79
2021/10/22 06:33:56;;;;;;;;;;;;;;;;;;5072737;28;20357;-77
2021/10/22 06:36:23;;;;;;;;;;;;;;;;;;5071686;28;19931;-78
2021/10/22 06:38:51;;;;;;;;;;;;;;;;;;5072134;28;20251;-78
2021/10/22 06:41:18;;;;;;;;;;;;;;;;;;5072615;28;20301;-78
2021/10/22 06:43:46;;;;;;;;;;;;;;;;;;5072460;28;20361;-78
2021/10/22 06:46:16;;;;;;;;;;;;;;;;;;5066847;28;19933;-77
2021/10/22 06:48:44;;;;;;;;;;;;;;;;;;5052243;28;19933;-79
2021/10/22 06:51:12;;;;;;;;;;;;;;;;;;5052334;28;19931;-77
2021/10/22 06:53:39;;;;;;;;;;;;;;;;;;5051898;28;19955;-78
2021/10/22 06:56:07;;;;;;;;;;;;;;;;;;5059920;28;19933;-77
2021/10/22 06:58:34;;;;;;;;;;;;;;;;;;5059840;28;19935;-79
2021/10/22 07:01:01;;;;;;;;;;;;;;;;;;5069041;28;19928;-79
2021/10/22 07:03:38;;;;;;;;;;;;;;;;;;5067888;28;19924;-78
2021/10/22 07:08:50;;;;;;;;;;;;;;;;;;5051703;28;19978;-78
2021/10/22 07:11:18;;;;;;;;;;;;;;;;;;5051560;28;19928;-79
2021/10/22 07:13:50;;;;;;;;;;;;;;;;;;5061238;28;19948;-79
2021/10/22 07:16:17;;;;;;;;;;;;;;;;;;5064227;28;19933;-76
2021/10/22 07:18:46;;;;;;;;;;;;;;;;;;5071031;28;19924;-80
2021/10/22 07:21:16;;;;;;;;;;;;;;;;;;5071199;28;20380;-77
2021/10/22 07:23:44;;;;;;;;;;;;;;;;;;5071307;28;20350;-81
2021/10/22 07:26:12;;;;;;;;;;;;;;;;;;5070418;28;20284;-79
2021/10/22 07:28:39;;;;;;;;;;;;;;;;;;5070711;28;19924;-78
2021/10/22 07:31:10;;;;;;;;;;;;;;;;;;5070850;28;20038;-78
2021/10/22 07:33:38;;;;;;;;;;;;;;;;;;5071160;28;19979;-78
2021/10/22 07:36:08;;;;;;;;;;;;;;;;;;5071504;28;19974;-79
2021/10/22 07:38:35;;;;;;;;;;;;;;;;;;5070468;28;19935;-78
2021/10/22 07:41:03;;;;;;;;;;;;;;;;;;5071407;28;20036;-77
2021/10/22 07:43:31;;;;;;;;;;;;;;;;;;5070762;28;19950;-77
2021/10/22 07:45:59;;;;;;;;;;;;;;;;;;5067815;28;19932;-78
2021/10/22 07:48:26;;;;;;;;;;;;;;;;;;5055403;28;19936;-78
2021/10/22 07:50:53;;;;;;;;;;;;;;;;;;5071030;28;19944;-77
2021/10/22 07:53:22;;;;;;;;;;;;;;;;;;5071260;28;19939;-78
2021/10/22 07:55:49;;;;;;;;;;;;;;;;;;5070790;28;19931;-78
2021/10/22 07:58:16;;;;;;;;;;;;;;;;;;5070604;28;19928;-77
2021/10/22 08:00:44;;;;;;;;;;;;;;;;;;5071111;28;19931;-78
2021/10/22 08:03:11;;;;;;;;;;;;;;;;;;5071187;28;19934;-80
2021/10/22 08:05:38;;;;;;;;;;;;;;;;;;5070551;28;19924;-77
2021/10/22 08:08:05;;;;;;;;;;;;;;;;;;5070964;28;19925;-77
2021/10/22 08:10:34;;;;;;;;;;;;;;;;;;5070620;28;19925;-79
2021/10/22 08:13:02;;;;;;;;;;;;;;;;;;5070212;28;19935;-79
2021/10/22 08:15:29;;;;;;;;;;;;;;;;;;5070391;28;20328;-79
2021/10/22 08:17:57;;;;;;;;;;;;;;;;;;5070410;28;19928;-77
2021/10/22 08:20:24;;;;;;;;;;;;;;;;;;5071031;28;19936;-78
2021/10/22 08:22:52;;;;;;;;;;;;;;;;;;5070989;28;19939;-78
2021/10/22 08:25:21;;;;;;;;;;;;;;;;;;5070256;28;19929;-78
2021/10/22 08:27:50;;;;;;;;;;;;;;;;;;5070725;28;19972;-77
2021/10/22 08:30:20;;;;;;;;;;;;;;;;;;5070895;28;19924;-78
2021/10/22 08:32:50;;;;;;;;;;;;;;;;;;5070163;28;19924;-79
2021/10/22 08:35:18;;;;;;;;;;;;;;;;;;5068341;28;20126;-78
2021/10/22 08:37:45;;;;;;;;;;;;;;;;;;5069155;28;19925;-78
2021/10/22 08:40:13;;;;;;;;;;;;;;;;;;5069321;28;19955;-80
2021/10/22 08:42:41;;;;;;;;;;;;;;;;;;5069172;28;19931;-78
2021/10/22 08:45:09;;;;;;;;;;;;;;;;;;5062258;28;19936;-80
2021/10/22 08:47:37;;;;;;;;;;;;;;;;;;5051986;28;19929;-79
2021/10/22 08:50:07;;;;;;;;;;;;;;;;;;5059057;28;19982;-79
2021/10/22 08:52:35;;;;;;;;;;;;;;;;;;5068019;28;19924;-79
2021/10/22 08:55:03;;;;;;;;;;;;;;;;;;5068357;28;19929;-77
2021/10/22 08:57:30;;;;;;;;;;;;;;;;;;5072706;28;19936;-78
2021/10/22 08:59:59;;;;;;;;;;;;;;;;;;5072929;28;19925;-79
2021/10/22 09:02:29;;;;;;;;;;;;;;;;;;5072675;28;19975;-77
2021/10/22 09:04:59;;;;;;;;;;;;;;;;;;5071752;28;20015;-78
2021/10/22 09:07:39;;;;;;;;;;;;;;;;;;5060899;28;19928;-79
2021/10/22 09:10:07;;;;;;;;;;;;;;;;;;5067514;28;19929;-79
2021/10/22 09:12:41;;;;;;;;;;;;;;;;;;5072107;28;19929;-78
2021/10/22 09:15:09;;;;;;;;;;;;;;;;;;5070007;28;19928;-78
2021/10/22 09:17:37;;;;;;;;;;;;;;;;;;5071989;28;19935;-77
2021/10/22 09:20:06;;;;;;;;;;;;;;;;;;5072214;28;19992;-79
2021/10/22 09:22:34;;;;;;;;;;;;;;;;;;5072435;28;19940;-77
2021/10/22 09:25:04;;;;;;;;;;;;;;;;;;5071550;28;19934;-78
2021/10/22 09:27:35;;;;;;;;;;;;;;;;;;5072574;28;20023;-78
2021/10/22 09:30:04;;;;;;;;;;;;;;;;;;5072214;28;19924;-77
2021/10/22 09:32:32;;;;;;;;;;;;;;;;;;5072890;28;19928;-77
2021/10/22 09:35:00;;;;;;;;;;;;;;;;;;5071974;28;19988;-78
2021/10/22 09:37:37;;;;;;;;;;;;;;;;;;5072051;28;19924;-77
2021/10/22 09:40:05;;;;;;;;;;;;;;;;;;5072531;28;19932;-80
2021/10/22 09:42:33;;;;;;;;;;;;;;;;;;5071784;28;20377;-81
2021/10/22 09:45:00;;;;;;;;;;;;;;;;;;5071587;28;20324;-77
2021/10/22 09:47:28;;;;;;;;;;;;;;;;;;5070804;28;20358;-79
2021/10/22 09:50:06;;;;;;;;;;;;;;;;;;5071042;28;19932;-77
2021/10/22 09:52:33;;;;;;;;;;;;;;;;;;5071410;28;19925;-79
2021/10/22 09:55:05;;;;;;;;;;;;;;;;;;5071507;28;19968;-77
2021/10/22 09:57:32;;;;;;;;;;;;;;;;;;5071310;28;19982;-79
2021/10/22 10:00:02;;;;;;;;;;;;;;;;;;5072080;28;19998;-79
2021/10/22 10:02:30;;;;;;;;;;;;;;;;;;5070769;28;19928;-80
2021/10/22 10:04:57;;;;;;;;;;;;;;;;;;5071504;28;19928;-78
2021/10/22 10:07:27;;;;;;;;;;;;;;;;;;5071591;28;19952;-79
2021/10/22 10:09:55;;;;;;;;;;;;;;;;;;5072111;28;19932;-77
2021/10/22 10:12:22;;;;;;;;;;;;;;;;;;5072083;28;20525;-79
2021/10/22 10:14:49;;;;;;;;;;;;;;;;;;5053727;28;19970;-78
2021/10/22 10:17:17;;;;;;;;;;;;;;;;;;5050738;28;19928;-78
2021/10/22 10:19:46;;;;;;;;;;;;;;;;;;5051423;28;19929;-79
2021/10/22 10:22:14;;;;;;;;;;;;;;;;;;5051814;28;20323;-79
2021/10/22 10:24:43;;;;;;;;;;;;;;;;;;5051306;28;19929;-79
2021/10/22 10:27:12;;;;;;;;;;;;;;;;;;5051849;28;19925;-78
2021/10/22 10:29:41;;;;;;;;;;;;;;;;;;5051413;28;19929;-79
2021/10/22 10:32:09;;;;;;;;;;;;;;;;;;5051825;28;19951;-78
2021/10/22 10:34:40;;;;;;;;;;;;;;;;;;5051039;28;19940;-79
2021/10/22 10:37:19;;;;;;;;;;;;;;;;;;5051249;28;20362;-78
2021/10/22 10:39:55;;;;;;;;;;;;;;;;;;5051382;28;19928;-79
2021/10/22 10:42:25;;;;;;;;;;;;;;;;;;5051349;28;19928;-77
2021/10/22 10:44:53;;;;;;;;;;;;;;;;;;5050927;28;20032;-79
2021/10/22 10:47:35;;;;;;;;;;;;;;;;;;5058510;28;19928;-78
2021/10/22 10:50:03;;;;;;;;;;;;;;;;;;5070479;28;19928;-78
2021/10/22 10:52:43;;;;;;;;;;;;;;;;;;5071360;28;19990;-80
2021/10/22 10:55:19;;;;;;;;;;;;;;;;;;5070807;28;20057;-80
2021/10/22 10:57:49;;;;;;;;;;;;;;;;;;5070662;28;19938;-78
2021/10/22 11:00:16;;;;;;;;;;;;;;;;;;5070517;28;19938;-78
2021/10/22 11:03:02;;;;;;;;;;;;;;;;;;5070881;28;19931;-77
2021/10/22 11:05:48;;;;;;;;;;;;;;;;;;5070596;28;19936;-79
2021/10/22 11:08:16;;;;;;;;;;;;;;;;;;5067123;28;19997;-78
2021/10/22 11:10:59;;;;;;;;;;;;;;;;;;5071312;28;20023;-81
2021/10/22 11:13:41;;;;;;;;;;;;;;;;;;5065316;28;20011;-79
2021/10/22 11:16:08;;;;;;;;;;;;;;;;;;5052229;28;19925;-78
2021/10/22 11:18:36;;;;;;;;;;;;;;;;;;5050766;28;20361;-79
2021/10/22 11:21:03;;;;;;;;;;;;;;;;;;5052148;28;19925;-79
2021/10/22 11:23:31;;;;;;;;;;;;;;;;;;5051757;28;19928;-78
2021/10/22 11:25:59;;;;;;;;;;;;;;;;;;5051944;28;19925;-78
2021/10/22 11:28:28;;;;;;;;;;;;;;;;;;5052126;28;19939;-79
2021/10/22 11:30:56;;;;;;;;;;;;;;;;;;5052041;28;19929;-78
2021/10/22 11:33:26;;;;;;;;;;;;;;;;;;5052070;28;19952;-80
2021/10/22 11:35:54;;;;;;;;;;;;;;;;;;5051517;28;19929;-78
2021/10/22 11:38:24;;;;;;;;;;;;;;;;;;5051160;28;20096;-79
2021/10/22 11:40:53;;;;;;;;;;;;;;;;;;5051713;28;19936;-77
2021/10/22 11:43:21;;;;;;;;;;;;;;;;;;5053520;28;19924;-78
2021/10/22 11:45:52;;;;;;;;;;;;;;;;;;5071877;28;19925;-80
2021/10/22 11:48:30;;;;;;;;;;;;;;;;;;5054612;28;20271;-78
2021/10/22 11:50:57;;;;;;;;;;;;;;;;;;5051629;28;20031;-78
2021/10/22 11:53:25;;;;;;;;;;;;;;;;;;5051658;28;19924;-78
2021/10/22 11:55:53;;;;;;;;;;;;;;;;;;5051091;28;19928;-77
2021/10/22 11:58:22;;;;;;;;;;;;;;;;;;5051443;28;20031;-78
2021/10/22 12:00:50;;;;;;;;;;;;;;;;;;5051042;28;19924;-78
2021/10/22 12:03:25;;;;;;;;;;;;;;;;;;5051548;28;19929;-79
2021/10/22 12:05:54;;;;;;;;;;;;;;;;;;5050947;28;19929;-79
2021/10/22 12:08:22;;;;;;;;;;;;;;;;;;5051063;28;19936;-80
2021/10/22 12:10:50;;;;;;;;;;;;;;;;;;5051316;28;20039;-79
2021/10/22 12:13:28;;;;;;;;;;;;;;;;;;5064181;28;19983;-79
2021/10/22 12:15:55;;;;;;;;;;;;;;;;;;5071215;28;19928;-79
2021/10/22 12:18:22;;;;;;;;;;;;;;;;;;5070330;28;20491;-79
2021/10/22 12:20:49;;;;;;;;;;;;;;;;;;5071573;28;19978;-79
2021/10/22 12:23:16;;;;;;;;;;;;;;;;;;5071244;28;19933;-79
2021/10/22 12:25:45;;;;;;;;;;;;;;;;;;5071010;28;19924;-78
2021/10/22 12:28:13;;;;;;;;;;;;;;;;;;5073194;28;19937;-78
2021/10/22 12:30:42;;;;;;;;;;;;;;;;;;5074332;28;19929;-78
2021/10/22 12:33:10;;;;;;;;;;;;;;;;;;5075560;28;19925;-79
2021/10/22 12:35:42;;;;;;;;;;;;;;;;;;5074997;28;19928;-80
2021/10/22 12:38:10;;;;;;;;;;;;;;;;;;5074723;28;20403;-79
2021/10/22 12:40:39;;;;;;;;;;;;;;;;;;5074971;28;19928;-78
2021/10/22 12:43:18;;;;;;;;;;;;;;;;;;5075199;28;20033;-78
2021/10/22 12:45:50;;;;;;;;;;;;;;;;;;5069334;28;19925;-79
2021/10/22 12:48:19;;;;;;;;;;;;;;;;;;5054175;28;19932;-79
2021/10/22 12:50:47;;;;;;;;;;;;;;;;;;5054637;28;20310;-79
2021/10/22 12:53:19;;;;;;;;;;;;;;;;;;5055099;28;19928;-78
2021/10/22 12:55:58;;;;;;;;;;;;;;;;;;5054816;28;19929;-79
2021/10/22 12:58:26;;;;;;;;;;;;;;;;;;5054452;28;19932;-78
2021/10/22 13:01:07;;;;;;;;;;;;;;;;;;5054955;28;19968;-79
2021/10/22 13:03:34;;;;;;;;;;;;;;;;;;5054504;28;19925;-79
2021/10/22 13:06:30;;;;;;;;;;;;;;;;;;5054476;28;19975;-79
2021/10/22 13:09:07;;;;;;;;;;;;;;;;;;5041452;28;19963;-78
2021/10/22 13:22:26;;;;;;;;;;;;;;;;;;5074091;28;19993;-79
2021/10/22 13:24:54;;;;;;;;;;;;;;;;;;5073915;28;19924;-78
2021/10/22 13:27:21;;;;;;;;;;;;;;;;;;5074580;28;19979;-78
2021/10/22 13:29:52;;;;;;;;;;;;;;;;;;5073964;28;19958;-78
2021/10/22 13:32:21;;;;;;;;;;;;;;;;;;5071165;28;19928;-78
2021/10/22 13:34:49;;;;;;;;;;;;;;;;;;5069357;28;19925;-79
2021/10/22 13:37:16;;;;;;;;;;;;;;;;;;5070576;28;19979;-78
2021/10/22 13:39:43;;;;;;;;;;;;;;;;;;5070442;28;19934;-79
2021/10/22 13:42:10;;;;;;;;;;;;;;;;;;5070227;28;19935;-78
2021/10/22 13:44:38;;;;;;;;;;;;;;;;;;5068846;28;19928;-78
2021/10/22 13:47:08;;;;;;;;;;;;;;;;;;5073319;28;19970;-79
2021/10/22 13:49:37;;;;;;;;;;;;;;;;;;5070315;28;19983;-79
2021/10/22 13:52:04;;;;;;;;;;;;;;;;;;5070388;28;19935;-80
2021/10/22 13:54:31;;;;;;;;;;;;;;;;;;5069290;28;19928;-79
2021/10/22 13:56:58;;;;;;;;;;;;;;;;;;5069099;28;19928;-79
2021/10/22 13:59:26;;;;;;;;;;;;;;;;;;5069570;28;20288;-81
2021/10/22 14:01:53;;;;;;;;;;;;;;;;;;5069679;28;19954;-80
2021/10/22 14:04:20;;;;;;;;;;;;;;;;;;5068384;28;20349;-78
2021/10/22 14:06:49;;;;;;;;;;;;;;;;;;5068940;28;19929;-78
2021/10/22 14:09:16;;;;;;;;;;;;;;;;;;5068852;28;19944;-78
2021/10/22 14:11:50;;;;;;;;;;;;;;;;;;5069186;28;19928;-77
2021/10/22 14:14:25;;;;;;;;;;;;;;;;;;5070093;28;20269;-78
2021/10/22 14:17:19;;;;;;;;;;;;;;;;;;5071796;28;19978;-79
2021/10/22 14:20:02;;;;;;;;;;;;;;;;;;5051844;28;20052;-78
2021/10/22 14:30:47;;;;;;;;;;;;;;;;;;5054186;28;19939;-78
2021/10/22 14:33:14;;;;;;;;;;;;;;;;;;5069158;28;19924;-78
2021/10/22 14:35:41;;;;;;;;;;;;;;;;;;5069739;28;19936;-78
2021/10/22 14:38:09;;;;;;;;;;;;;;;;;;5070752;28;19932;-78
2021/10/22 14:40:38;;;;;;;;;;;;;;;;;;5070176;28;19936;-79
2021/10/22 14:43:06;;;;;;;;;;;;;;;;;;5071113;28;20013;-79
2021/10/22 14:45:41;;;;;;;;;;;;;;;;;;5071110;28;19924;-79
2021/10/22 14:48:11;;;;;;;;;;;;;;;;;;5069785;28;19932;-78
2021/10/22 14:50:40;;;;;;;;;;;;;;;;;;5069658;28;19942;-78
2021/10/22 14:53:22;;;;;;;;;;;;;;;;;;5067647;28;20493;-79
2021/10/22 14:55:51;;;;;;;;;;;;;;;;;;5067710;28;20612;-84
2021/10/22 14:58:18;;;;;;;;;;;;;;;;;;5069623;28;20037;-78
2021/10/22 15:00:47;;;;;;;;;;;;;;;;;;5070827;28;20357;-78
2021/10/22 15:03:15;;;;;;;;;;;;;;;;;;5070582;28;19948;-77
2021/10/22 15:05:42;;;;;;;;;;;;;;;;;;5068168;28;19946;-77
2021/10/22 15:08:14;;;;;;;;;;;;;;;;;;5067738;28;19936;-78
2021/10/22 15:10:41;;;;;;;;;;;;;;;;;;5050781;28;19925;-78
2021/10/22 15:13:10;;;;;;;;;;;;;;;;;;5062778;28;19928;-78
2021/10/22 15:15:37;;;;;;;;;;;;;;;;;;5068525;28;19928;-78
2021/10/22 15:18:05;;;;;;;;;;;;;;;;;;5066669;28;19999;-78
2021/10/22 15:20:34;;;;;;;;;;;;;;;;;;5068812;28;19932;-80
2021/10/22 15:23:01;;;;;;;;;;;;;;;;;;5067756;28;19928;-79
2021/10/22 15:25:28;;;;;;;;;;;;;;;;;;5067451;28;19932;-76
2021/10/22 15:27:55;;;;;;;;;;;;;;;;;;5068492;28;19928;-79
2021/10/22 15:30:25;;;;;;;;;;;;;;;;;;5068045;28;19928;-78
2021/10/22 15:32:53;;;;;;;;;;;;;;;;;;5067603;28;20039;-77
2021/10/22 15:35:20;;;;;;;;;;;;;;;;;;5067610;28;20408;-78
2021/10/22 15:37:47;;;;;;;;;;;;;;;;;;5068204;28;20723;-79
2021/10/22 15:40:14;;;;;;;;;;;;;;;;;;5071745;28;19925;-80
2021/10/22 15:42:41;;;;;;;;;;;;;;;;;;5074472;28;19935;-79
2021/10/22 15:45:09;;;;;;;;;;;;;;;;;;5073094;28;19936;-81
2021/10/22 15:47:38;;;;;;;;;;;;;;;;;;5075493;28;19977;-80
2021/10/22 15:50:06;;;;;;;;;;;;;;;;;;5067983;28;19924;-79
2021/10/22 15:52:33;;;;;;;;;;;;;;;;;;5068746;28;19943;-79
2021/10/22 15:55:00;;;;;;;;;;;;;;;;;;5068721;28;19924;-79
2021/10/22 15:57:29;;;;;;;;;;;;;;;;;;5067391;28;19939;-77
2021/10/22 15:59:56;;;;;;;;;;;;;;;;;;5068821;28;19937;-77
2021/10/22 16:02:23;;;;;;;;;;;;;;;;;;5065523;28;20010;-79
2021/10/22 16:04:53;;;;;;;;;;;;;;;;;;5065260;28;19929;-78
2021/10/22 16:07:26;;;;;;;;;;;;;;;;;;5068170;28;19924;-78
2021/10/22 16:09:59;;;;;;;;;;;;;;;;;;5066772;28;19932;-79
2021/10/22 16:12:29;;;;;;;;;;;;;;;;;;5068675;28;20645;-77
2021/10/22 16:15:05;;;;;;;;;;;;;;;;;;5067447;28;21273;-79
2021/10/22 16:17:34;;;;;;;;;;;;;;;;;;5066952;28;19933;-80
2021/10/22 16:20:03;;;;;;;;;;;;;;;;;;5065324;28;19929;-78
2021/10/22 16:22:30;;;;;;;;;;;;;;;;;;5067772;28;20269;-78
2021/10/22 16:24:57;;;;;;;;;;;;;;;;;;5067827;28;19935;-78
2021/10/22 16:27:24;;;;;;;;;;;;;;;;;;5067222;28;19928;-77
2021/10/22 16:29:51;;;;;;;;;;;;;;;;;;5068501;28;19924;-79
2021/10/22 16:32:19;;;;;;;;;;;;;;;;;;5051001;28;19925;-78
2021/10/22 16:37:33;;;;;;;;;;;;;;;;;;5049279;28;19932;-77
2021/10/22 16:40:01;;;;;;;;;;;;;;;;;;5047075;28;19929;-77
2021/10/22 16:42:28;;;;;;;;;;;;;;;;;;5047829;28;19936;-78
2021/10/22 16:44:59;;;;;;;;;;;;;;;;;;5048490;28;19933;-79
2021/10/22 16:47:26;;;;;;;;;;;;;;;;;;5047374;28;19939;-79
2021/10/22 16:49:53;;;;;;;;;;;;;;;;;;5047689;28;19932;-78
2021/10/22 16:52:21;;;;;;;;;;;;;;;;;;5046202;28;20246;-79
2021/10/22 16:54:49;;;;;;;;;;;;;;;;;;5046468;28;19929;-79
2021/10/22 16:57:16;;;;;;;;;;;;;;;;;;5047979;28;20258;-78
2021/10/22 16:59:43;;;;;;;;;;;;;;;;;;5048855;28;19944;-77
2021/10/22 17:02:10;;;;;;;;;;;;;;;;;;5047774;28;19940;-78
2021/10/22 17:04:42;;;;;;;;;;;;;;;;;;5048046;28;19928;-77
2021/10/22 17:07:10;;;;;;;;;;;;;;;;;;5045665;28;19924;-77
2021/10/22 17:09:37;;;;;;;;;;;;;;;;;;5044900;28;19994;-77
2021/10/22 17:12:07;;;;;;;;;;;;;;;;;;5051335;28;19932;-77
2021/10/22 17:14:34;;;;;;;;;;;;;;;;;;5066541;28;19924;-76
2021/10/22 17:17:01;;;;;;;;;;;;;;;;;;5068195;28;19924;-77
2021/10/22 17:19:29;;;;;;;;;;;;;;;;;;5068531;28;19939;-77